Ana Sayfa
METAR-TAF:

METAR-TAF

Havaalanları :

Harrisburg, Pensilvanya, Amerika Birleşik Devletleri

Enlem: 40-13-02N, Boylam: 076-51-05W, yükseklik: 106 m

Güncel hava durumu gözlemi

Rapor saat 00:56 UTC de 1 saat ve 4 dakika önce yapıldı.
Rüzgar kuzeybatıdan 4 kt
Sıcaklık 6°C
Nem 70%
Basınç 1007 hPa
Görüş mesafesi: 16.1 km
3400 ft yükseklikte parçalı çok bulutlu

METAR: KCXY 190056Z 31004KT 10SM BKN034 06/01 A2975 RMK AO2 SLP077 T00560011

Saat: 21:00 (02:00 UTC)


TAF: eksik

4.000'den fazla havaalanı için hava durumu gözlemleri ve tahminleri (METAR ve TAF raporları).

Kullanılabilir istasyonlar harita üzerinde sarı ve kırmızı noktalarla gösterilir.

İstasyonun adını görmek için fareyi noktanın üzerinde gezdirin.

Sonrasında hava gözlem ve tahminlerini görmek için tıklayın.

Haritayı değiştirmek için: yaklaştırmak için siyah artı işaretli yeşil düğmeye ve uzaklaştırmak için de eksi işaretli düğmeye hızla tıklayın; bitişik haritalar için yeşil okları kullanın.


METAR-TAF: